createdAt,value
2022-08-05T00:00:00.687Z,21.35
2022-08-05T00:05:00.489Z,21.43
2022-08-05T00:10:02.621Z,21.50
2022-08-05T00:15:54.280Z,21.55
2022-08-05T00:20:04.551Z,21.59
2022-08-05T00:25:08.376Z,21.59
2022-08-05T00:30:11.335Z,21.58
2022-08-05T00:35:10.484Z,21.56
2022-08-05T00:40:10.562Z,21.54
2022-08-05T00:45:11.602Z,21.52
2022-08-05T00:50:11.636Z,21.50
2022-08-05T00:55:13.605Z,21.50
2022-08-05T01:00:16.882Z,21.47
2022-08-05T01:05:16.531Z,21.44
2022-08-05T01:10:16.624Z,21.41
2022-08-05T01:15:36.489Z,21.37
2022-08-05T01:20:20.556Z,21.32
2022-08-05T01:25:22.558Z,21.27
2022-08-05T01:30:33.504Z,21.22
2022-08-05T01:35:51.919Z,21.17
2022-08-05T01:40:29.097Z,21.11
2022-08-05T01:45:34.858Z,21.04
2022-08-05T01:50:31.648Z,20.99
2022-08-05T01:55:31.586Z,20.92
2022-08-05T02:00:33.565Z,20.87
2022-08-05T02:05:34.177Z,20.85
2022-08-05T02:10:34.807Z,20.86
2022-08-05T02:15:34.572Z,20.91
2022-08-05T02:20:39.074Z,20.96
2022-08-05T02:25:49.260Z,21.00
2022-08-05T02:30:38.599Z,21.03
2022-08-05T02:35:50.954Z,21.02
2022-08-05T02:40:45.611Z,21.01
2022-08-05T02:45:52.501Z,20.99
2022-08-05T02:50:51.319Z,20.97
2022-08-05T02:55:59.510Z,20.98
2022-08-05T03:00:54.607Z,20.96
2022-08-05T03:06:55.891Z,20.85
2022-08-05T03:11:53.469Z,20.56
2022-08-05T03:15:58.730Z,20.14
2022-08-05T03:20:58.659Z,19.76
2022-08-05T03:26:04.628Z,19.48
2022-08-05T03:31:01.698Z,19.30
2022-08-05T03:36:01.754Z,19.30
2022-08-05T03:41:04.001Z,19.52
2022-08-05T03:46:08.223Z,19.77
2022-08-05T03:52:38.383Z,20.01
2022-08-05T03:56:18.088Z,20.15
2022-08-05T04:01:13.040Z,20.25
2022-08-05T04:06:13.653Z,20.30
2022-08-05T04:11:13.640Z,20.29
2022-08-05T04:16:15.674Z,20.27
2022-08-05T04:21:45.729Z,20.25
2022-08-05T04:26:19.711Z,20.23
2022-08-05T04:31:19.904Z,20.19
2022-08-05T04:36:44.795Z,20.23
2022-08-05T04:41:21.680Z,20.33
2022-08-05T04:46:28.135Z,20.45
2022-08-05T04:51:25.778Z,20.55
2022-08-05T04:56:34.244Z,20.62
2022-08-05T05:02:04.040Z,20.73
2022-08-05T05:06:40.348Z,20.80
2022-08-05T05:11:42.148Z,20.73
2022-08-05T05:16:35.691Z,20.64
2022-08-05T05:21:35.701Z,20.65
2022-08-05T05:26:35.699Z,20.68
2022-08-05T05:36:35.378Z,20.85
2022-08-05T05:41:40.915Z,20.93
2022-08-05T05:46:38.717Z,20.94
2022-08-05T05:51:49.528Z,20.94
2022-08-05T05:56:41.847Z,20.98
2022-08-05T06:01:57.593Z,21.10
2022-08-05T06:06:47.607Z,21.25
2022-08-05T06:11:59.245Z,21.42
2022-08-05T06:16:48.831Z,21.61
2022-08-05T06:21:49.680Z,21.79
2022-08-05T06:26:51.571Z,21.90
2022-08-05T06:31:51.812Z,21.89
2022-08-05T06:36:57.205Z,21.83
2022-08-05T06:41:53.765Z,21.77
2022-08-05T06:46:54.390Z,21.71
2022-08-05T06:51:54.786Z,21.64
2022-08-05T06:57:57.691Z,21.58
2022-08-05T07:01:56.803Z,21.55
2022-08-05T07:06:56.887Z,21.56
2022-08-05T07:12:00.481Z,21.56
2022-08-05T07:17:59.044Z,21.57
2022-08-05T07:22:02.730Z,21.56
2022-08-05T07:27:03.004Z,21.49
2022-08-05T07:32:03.955Z,21.42
2022-08-05T07:37:03.864Z,21.34
2022-08-05T07:42:13.453Z,21.25
2022-08-05T07:47:07.872Z,21.13
2022-08-05T07:52:07.804Z,20.98
2022-08-05T07:57:18.114Z,20.81
2022-08-05T08:02:16.694Z,20.67
2022-08-05T08:07:13.947Z,20.59
2022-08-05T08:12:33.472Z,20.52
2022-08-05T08:17:16.982Z,20.44
2022-08-05T08:22:16.891Z,20.35
2022-08-05T08:27:17.213Z,20.26
2022-08-05T08:32:21.449Z,20.15
2022-08-05T08:37:19.125Z,20.04
2022-08-05T08:42:34.597Z,19.96
2022-08-05T08:47:47.034Z,19.90
2022-08-05T08:52:26.438Z,19.82
2022-08-05T08:57:29.307Z,19.75
2022-08-05T09:02:29.019Z,19.76
2022-08-05T09:07:39.899Z,19.86
2022-08-05T09:12:31.451Z,19.94
2022-08-05T09:17:41.200Z,20.00
2022-08-05T09:22:35.314Z,20.05
2022-08-05T09:28:04.857Z,20.11
2022-08-05T09:32:40.852Z,20.21
2022-08-05T09:38:12.918Z,20.28
2022-08-05T09:42:43.263Z,20.37
2022-08-05T09:47:48.030Z,20.55
2022-08-05T09:52:47.995Z,20.72
2022-08-05T09:57:50.026Z,20.82
2022-08-05T10:02:54.191Z,20.78
2022-08-05T10:08:35.203Z,20.70
2022-08-05T10:12:56.054Z,20.69
2022-08-05T10:17:57.643Z,20.88
2022-08-05T10:22:58.536Z,21.17
2022-08-05T10:28:16.645Z,21.53
2022-08-05T10:33:02.802Z,22.19
2022-08-05T10:38:02.947Z,23.16
2022-08-05T10:43:04.701Z,24.37
2022-08-05T10:48:30.341Z,25.28
2022-08-05T10:53:07.007Z,25.85
2022-08-05T10:58:07.728Z,26.75
2022-08-05T11:03:25.226Z,27.88
2022-08-05T11:08:33.847Z,28.56
2022-08-05T11:13:12.978Z,28.84
2022-08-05T11:18:15.421Z,28.78
2022-08-05T11:23:15.987Z,28.75
2022-08-05T11:28:18.027Z,28.83
2022-08-05T11:33:21.076Z,28.70
2022-08-05T11:38:37.400Z,28.73
2022-08-05T11:44:04.444Z,28.77
2022-08-05T11:48:25.216Z,28.34
2022-08-05T11:53:26.044Z,27.82
2022-08-05T11:58:28.182Z,27.66
2022-08-05T12:03:31.653Z,27.41
2022-08-05T12:08:31.520Z,27.13
2022-08-05T12:13:48.454Z,27.14
2022-08-05T12:18:34.030Z,27.30
2022-08-05T12:23:36.295Z,27.39
2022-08-05T12:28:38.047Z,27.61
2022-08-05T12:33:38.858Z,28.14
2022-08-05T12:38:39.692Z,28.42
2022-08-05T12:43:40.191Z,28.22
2022-08-05T12:48:41.074Z,28.01
2022-08-05T12:53:43.283Z,27.95
2022-08-05T12:58:53.087Z,27.67
2022-08-05T13:03:48.857Z,27.18
2022-08-05T13:08:51.964Z,27.00
2022-08-05T13:14:04.991Z,27.36
2022-08-05T13:18:53.141Z,27.68
2022-08-05T13:23:55.168Z,27.52
2022-08-05T13:28:55.212Z,27.30
2022-08-05T13:34:24.420Z,27.33
2022-08-05T13:38:57.219Z,27.63
2022-08-05T13:43:57.188Z,27.83
2022-08-05T13:49:00.652Z,27.45
2022-08-05T13:53:59.197Z,26.66
2022-08-05T13:59:06.264Z,26.03
2022-08-05T14:04:21.416Z,25.86
2022-08-05T14:09:21.800Z,25.93
2022-08-05T14:14:23.375Z,25.89
2022-08-05T14:19:24.147Z,25.81
2022-08-05T14:24:26.217Z,25.88
2022-08-05T14:29:26.259Z,26.23
2022-08-05T14:34:26.189Z,26.70
2022-08-05T14:39:26.251Z,27.16
2022-08-05T14:44:27.215Z,27.55
2022-08-05T14:49:56.519Z,27.76
2022-08-05T14:54:33.647Z,27.81
2022-08-05T14:59:35.349Z,27.74
2022-08-05T15:04:35.312Z,27.68
2022-08-05T15:09:51.430Z,27.66
2022-08-05T15:14:48.429Z,27.61
2022-08-05T15:19:39.331Z,27.56
2022-08-05T15:24:41.407Z,27.52
2022-08-05T15:29:41.787Z,27.40
2022-08-05T15:34:42.209Z,27.33
2022-08-05T15:41:01.024Z,27.33
2022-08-05T15:44:44.378Z,27.27
2022-08-05T15:49:56.846Z,27.19
2022-08-05T15:54:46.311Z,27.10
2022-08-05T15:59:46.315Z,26.94
2022-08-05T16:04:46.282Z,26.80
2022-08-05T16:09:46.309Z,26.72
2022-08-05T16:14:46.276Z,26.50
2022-08-05T16:20:04.442Z,26.18
2022-08-05T16:24:52.002Z,25.84
2022-08-05T16:29:50.922Z,25.50
2022-08-05T16:34:51.379Z,25.25
2022-08-05T16:40:05.892Z,25.11
2022-08-05T16:44:57.049Z,25.05
2022-08-05T16:49:56.325Z,25.03
2022-08-05T16:54:56.362Z,25.03
2022-08-05T17:00:04.260Z,24.97
2022-08-05T17:05:00.347Z,24.85
2022-08-05T17:10:00.488Z,24.70
2022-08-05T17:15:02.404Z,24.53
2022-08-05T17:20:03.565Z,24.35
2022-08-05T17:25:03.286Z,24.08
2022-08-05T17:30:11.919Z,23.82
2022-08-05T17:35:07.519Z,23.67
2022-08-05T17:40:10.178Z,23.62
2022-08-05T17:45:18.013Z,23.60
2022-08-05T17:50:11.474Z,23.48
2022-08-05T17:55:12.795Z,23.29
2022-08-05T18:00:14.262Z,23.10
2022-08-05T18:05:16.947Z,22.90
2022-08-05T18:10:20.779Z,22.66
2022-08-05T18:15:18.399Z,22.46
2022-08-05T18:20:18.355Z,22.26
2022-08-05T18:25:18.399Z,22.04
2022-08-05T18:30:18.457Z,21.81
2022-08-05T18:35:18.396Z,21.60
2022-08-05T18:40:57.571Z,21.41
2022-08-05T18:45:20.603Z,21.22
2022-08-05T18:50:45.167Z,21.01
2022-08-05T18:55:40.486Z,20.82
2022-08-05T19:00:40.498Z,20.62
2022-08-05T19:06:11.283Z,20.42
2022-08-05T19:10:44.445Z,20.23
2022-08-05T19:15:59.192Z,20.03
2022-08-05T19:20:47.518Z,19.84
2022-08-05T19:25:47.395Z,19.65
2022-08-05T19:30:49.490Z,19.45
2022-08-05T19:35:56.599Z,19.25
2022-08-05T19:40:51.511Z,19.05
2022-08-05T19:45:54.569Z,18.86
2022-08-05T19:50:54.475Z,18.69
2022-08-05T19:56:15.400Z,18.54
2022-08-05T20:00:56.491Z,18.38
2022-08-05T20:05:57.968Z,18.24
2022-08-05T20:10:58.585Z,18.11
2022-08-05T20:15:59.758Z,17.99
2022-08-05T20:21:00.099Z,17.87
2022-08-05T20:26:00.515Z,17.76
2022-08-05T20:31:00.483Z,17.68
2022-08-05T20:36:01.992Z,17.60
2022-08-05T20:41:04.488Z,17.53
2022-08-05T20:46:03.575Z,17.46
2022-08-05T20:51:08.160Z,17.42
2022-08-05T20:56:08.694Z,17.40
2022-08-05T21:01:07.595Z,17.36
2022-08-05T21:06:28.389Z,17.32
2022-08-05T21:11:10.207Z,17.28
2022-08-05T21:16:11.708Z,17.23
2022-08-05T21:21:11.465Z,17.18
2022-08-05T21:26:14.381Z,17.12
2022-08-05T21:31:13.499Z,17.03
2022-08-05T21:36:13.557Z,16.93
2022-08-05T21:41:16.043Z,16.81
2022-08-05T21:46:17.546Z,16.70
2022-08-05T21:52:15.510Z,16.59
2022-08-05T21:56:21.707Z,16.49
2022-08-05T22:01:24.210Z,16.39
2022-08-05T22:06:37.072Z,16.29
2022-08-05T22:11:34.661Z,16.17
2022-08-05T22:16:41.999Z,16.06
2022-08-05T22:21:33.545Z,15.97
2022-08-05T22:26:51.876Z,15.87
2022-08-05T22:31:55.210Z,15.77
2022-08-05T22:36:53.540Z,15.69
2022-08-05T22:42:09.847Z,15.61
2022-08-05T22:46:55.625Z,15.56
2022-08-05T22:52:06.019Z,15.52
2022-08-05T22:56:57.651Z,15.49
2022-08-05T23:02:05.489Z,15.48
2022-08-05T23:06:59.646Z,15.46
2022-08-05T23:11:59.731Z,15.43
2022-08-05T23:17:18.621Z,15.37
2022-08-05T23:22:19.841Z,15.31
2022-08-05T23:27:22.681Z,15.26
2022-08-05T23:32:23.837Z,15.19
2022-08-05T23:37:26.613Z,15.12
2022-08-05T23:42:29.449Z,15.05
2022-08-05T23:47:28.632Z,14.98
2022-08-05T23:52:32.195Z,14.90
2022-08-05T23:57:33.705Z,14.83
